Time;durP1;ratioP1;P1;durP2;ratioP2;P2;SDS_P1;SDS_P2;PMS_P1;PMS_P2;Temp;Humidity;BMP_temperature;BMP_pressure;BME280_temperature;BME280_humidity;BME280_pressure;Samples;Min_cycle;Max_cycle;Signal;HPM_P1;HPM_P2
2024/01/21 00:00:42;;;;;;;22.67;11.23;;;;;;;-2.11;67.85;99996.97;5053970;28;20036;-74
2024/01/21 00:03:08;;;;;;;20.45;10.52;;;;;;;-2.11;67.49;99998.75;5059857;28;20041;-74
2024/01/21 00:05:33;;;;;;;24.55;12.95;;;;;;;-2.09;68.00;99999.44;5063857;28;20040;-74
2024/01/21 00:07:59;;;;;;;20.38;11.93;;;;;;;-2.14;68.74;99997.25;5079542;28;20480;-74
2024/01/21 00:10:24;;;;;;;20.40;11.57;;;;;;;-2.20;68.54;100002.22;5077190;28;20043;-74
2024/01/21 00:12:49;;;;;;;25.38;11.77;;;;;;;-2.21;67.79;99990.94;5060257;28;20051;-74
2024/01/21 00:15:15;;;;;;;22.50;12.32;;;;;;;-2.29;68.98;99982.94;5068027;28;20024;-74
2024/01/21 00:17:40;;;;;;;20.63;11.80;;;;;;;-2.25;68.97;99986.97;5066181;28;20104;-74
2024/01/21 00:20:06;;;;;;;24.48;13.30;;;;;;;-2.24;67.00;99985.16;5066268;28;20079;-74
2024/01/21 00:22:32;;;;;;;20.25;12.65;;;;;;;-2.17;67.06;99987.09;5058381;28;20496;-74
2024/01/21 00:24:57;;;;;;;18.27;10.75;;;;;;;-2.10;66.66;99982.13;5064016;28;20358;-74
2024/01/21 00:27:22;;;;;;;26.08;12.55;;;;;;;-2.15;67.51;99990.38;5065548;28;20111;-75
2024/01/21 00:29:48;;;;;;;19.20;11.43;;;;;;;-2.13;67.16;99985.84;5067278;28;20039;-74
2024/01/21 00:32:13;;;;;;;20.75;11.95;;;;;;;-2.06;66.73;99975.63;5052179;28;20036;-77
2024/01/21 00:34:38;;;;;;;21.50;11.85;;;;;;;-2.07;67.44;99973.97;5053180;28;20072;-73
2024/01/21 00:37:04;;;;;;;16.23;9.85;;;;;;;-2.11;66.79;99975.22;5057919;28;20029;-74
2024/01/21 00:39:31;;;;;;;16.95;10.60;;;;;;;-2.18;67.04;99974.97;5069302;28;20068;-75
2024/01/21 00:41:56;;;;;;;21.33;10.30;;;;;;;-2.16;67.72;99975.66;5065416;28;20673;-75
2024/01/21 00:44:22;;;;;;;20.15;11.68;;;;;;;-2.23;67.64;99971.97;5062277;28;20033;-75
2024/01/21 00:46:47;;;;;;;21.27;10.68;;;;;;;-2.17;68.00;99975.78;5056081;28;20465;-75
2024/01/21 00:49:13;;;;;;;19.42;10.45;;;;;;;-2.31;67.98;99974.44;5065852;28;20082;-74
2024/01/21 00:51:38;;;;;;;22.85;11.45;;;;;;;-2.31;67.96;99979.66;5066545;28;20389;-73
2024/01/21 00:54:04;;;;;;;23.85;11.27;;;;;;;-2.39;68.04;99972.53;5055859;28;20417;-74
2024/01/21 00:56:29;;;;;;;16.75;10.27;;;;;;;-2.37;67.43;99964.53;5064459;28;20444;-74
2024/01/21 00:58:54;;;;;;;18.45;10.07;;;;;;;-2.35;68.13;99967.84;5067185;28;20028;-74
2024/01/21 01:01:20;;;;;;;22.02;11.80;;;;;;;-2.39;67.69;99963.84;5067656;28;20094;-74
2024/01/21 01:03:45;;;;;;;20.42;13.15;;;;;;;-2.43;67.44;99959.88;5065180;28;20082;-74
2024/01/21 01:06:10;;;;;;;19.13;11.02;;;;;;;-2.43;68.27;99947.63;5059357;28;20490;-74
2024/01/21 01:08:36;;;;;;;20.45;10.23;;;;;;;-2.40;67.46;99949.94;5058500;28;20075;-75
2024/01/21 01:11:01;;;;;;;21.13;11.75;;;;;;;-2.37;67.19;99954.06;5080012;28;20048;-74
2024/01/21 01:13:26;;;;;;;21.88;11.30;;;;;;;-2.34;67.02;99948.59;5063279;28;20040;-75
2024/01/21 01:15:52;;;;;;;18.00;12.25;;;;;;;-2.23;66.89;99939.75;5063942;28;20034;-74
2024/01/21 01:18:17;;;;;;;17.70;10.25;;;;;;;-2.21;66.53;99925.59;5068260;28;20025;-74
2024/01/21 01:20:43;;;;;;;18.42;11.13;;;;;;;-2.21;66.11;99932.59;5065181;28;20056;-74
2024/01/21 01:23:09;;;;;;;20.25;11.65;;;;;;;-2.22;66.32;99936.16;5058178;28;20039;-74
2024/01/21 01:25:34;;;;;;;19.05;10.13;;;;;;;-2.20;65.77;99932.44;5060557;28;20051;-74
2024/01/21 01:27:59;;;;;;;23.35;11.27;;;;;;;-2.20;66.56;99913.31;5067439;28;20619;-74
2024/01/21 01:30:25;;;;;;;23.10;12.52;;;;;;;-2.22;67.62;99913.47;5060991;28;20035;-73
2024/01/21 01:32:50;;;;;;;21.17;11.88;;;;;;;-2.33;67.93;99919.69;5059567;28;20037;-75
2024/01/21 01:35:15;;;;;;;25.58;11.85;;;;;;;-2.32;67.08;99904.81;5061357;28;20170;-73
2024/01/21 01:37:41;;;;;;;19.42;11.77;;;;;;;-2.23;66.23;99893.53;5060995;28;20070;-73
2024/01/21 01:40:06;;;;;;;20.50;11.27;;;;;;;-2.28;67.42;99895.72;5064339;28;20029;-73
2024/01/21 01:42:33;;;;;;;20.52;10.80;;;;;;;-2.18;66.69;99887.88;5062317;28;20096;-74
2024/01/21 01:44:59;;;;;;;22.10;11.05;;;;;;;-2.23;67.55;99892.69;5069343;28;20032;-74
2024/01/21 01:47:25;;;;;;;18.73;10.23;;;;;;;-2.50;67.19;99886.41;5072079;28;20087;-74
2024/01/21 01:49:52;;;;;;;16.63;9.40;;;;;;;-2.48;67.21;99892.34;5064890;28;20032;-74
2024/01/21 01:52:17;;;;;;;22.98;10.68;;;;;;;-2.47;67.32;99896.56;5063103;28;20032;-74
2024/01/21 01:54:45;;;;;;;24.98;11.18;;;;;;;-2.45;67.68;99897.28;5063983;28;20036;-74
2024/01/21 01:57:13;;;;;;;22.08;11.85;;;;;;;-2.51;68.11;99883.97;5071268;28;20051;-74
2024/01/21 01:59:38;;;;;;;20.58;9.60;;;;;;;-2.56;67.81;99886.16;5074009;28;20032;-74
2024/01/21 02:02:04;;;;;;;22.92;11.38;;;;;;;-2.51;67.43;99889.19;5065840;28;20370;-74
2024/01/21 02:04:30;;;;;;;19.80;10.50;;;;;;;-2.54;67.63;99881.63;5067658;28;20056;-74
2024/01/21 02:06:56;;;;;;;20.65;10.98;;;;;;;-2.57;68.38;99876.66;5048107;28;20083;-74
2024/01/21 02:09:21;;;;;;;26.48;12.05;;;;;;;-2.59;68.50;99875.97;5065726;28;20036;-74
2024/01/21 02:11:46;;;;;;;23.83;12.43;;;;;;;-2.56;68.26;99862.63;5071230;28;20501;-74
2024/01/21 02:14:12;;;;;;;24.90;12.65;;;;;;;-2.60;68.02;99864.69;5065763;28;20040;-74
2024/01/21 02:16:38;;;;;;;25.40;13.13;;;;;;;-2.58;68.93;99854.13;5061200;28;20040;-74
2024/01/21 02:19:10;;;;;;;20.13;11.80;;;;;;;-2.56;68.14;99860.84;5063192;28;20036;-74
2024/01/21 02:21:35;;;;;;;21.10;12.02;;;;;;;-2.61;67.95;99850.00;5069060;28;20036;-75
2024/01/21 02:24:02;;;;;;;25.17;14.00;;;;;;;-2.59;68.50;99839.41;5074056;28;20043;-74
2024/01/21 02:26:27;;;;;;;24.23;13.02;;;;;;;-2.60;68.39;99850.81;5067091;28;20043;-74
2024/01/21 02:28:52;;;;;;;29.23;14.02;;;;;;;-2.58;68.89;99841.06;5074137;28;20386;-74
2024/01/21 02:31:18;;;;;;;28.50;13.73;;;;;;;-2.53;68.97;99844.06;5065460;28;20032;-74
2024/01/21 02:33:43;;;;;;;25.52;13.02;;;;;;;-2.56;68.44;99839.13;5076182;28;20055;-75
2024/01/21 02:36:09;;;;;;;23.17;12.63;;;;;;;-2.55;69.05;99836.34;5071240;28;20078;-74
2024/01/21 02:38:34;;;;;;;26.38;14.65;;;;;;;-2.54;68.43;99840.63;5071621;28;20474;-74
2024/01/21 02:41:00;;;;;;;29.98;15.07;;;;;;;-2.45;68.51;99831.94;5061335;28;20040;-74
2024/01/21 02:43:25;;;;;;;25.48;13.70;;;;;;;-2.46;68.16;99821.63;5067529;28;20025;-75
2024/01/21 02:45:50;;;;;;;25.98;13.77;;;;;;;-2.43;68.53;99824.78;5069559;28;20381;-74
2024/01/21 02:48:16;;;;;;;25.05;13.45;;;;;;;-2.42;67.32;99820.38;5068010;28;20037;-74
2024/01/21 02:50:41;;;;;;;25.70;13.50;;;;;;;-2.41;67.92;99816.81;5059579;28;20068;-75
2024/01/21 02:53:07;;;;;;;25.63;15.18;;;;;;;-2.46;68.79;99808.56;5067109;28;20036;-74
2024/01/21 02:55:32;;;;;;;24.60;13.35;;;;;;;-2.47;68.40;99812.16;5058269;28;20032;-76
2024/01/21 02:57:57;;;;;;;25.25;13.77;;;;;;;-2.61;67.65;99802.97;5069374;28;20074;-74
2024/01/21 03:00:23;;;;;;;25.77;13.23;;;;;;;-2.53;68.07;99797.84;5067569;28;20055;-74
2024/01/21 03:02:49;;;;;;;25.63;10.82;;;;;;;-2.57;68.09;99799.09;5066810;28;20032;-74
2024/01/21 03:05:15;;;;;;;20.88;12.30;;;;;;;-2.61;69.11;99794.28;5063300;28;20925;-74
2024/01/21 03:07:40;;;;;;;24.70;13.48;;;;;;;-2.54;67.73;99798.81;5074073;28;20025;-75
2024/01/21 03:10:06;;;;;;;23.00;13.52;;;;;;;-2.57;67.59;99783.41;5063403;28;20025;-75
2024/01/21 03:12:31;;;;;;;25.70;13.80;;;;;;;-2.47;68.01;99792.03;5066489;28;20039;-75
2024/01/21 03:14:57;;;;;;;32.83;14.15;;;;;;;-2.48;67.96;99803.47;5056278;28;20148;-74
2024/01/21 03:17:22;;;;;;;26.42;14.35;;;;;;;-2.37;68.01;99792.03;5066296;28;20107;-75
2024/01/21 03:19:47;;;;;;;25.10;14.25;;;;;;;-2.22;67.56;99787.13;5063096;28;20036;-75
2024/01/21 03:22:13;;;;;;;26.88;13.80;;;;;;;-2.31;68.03;99783.59;5061119;28;20043;-75
2024/01/21 03:24:38;;;;;;;27.48;14.60;;;;;;;-2.36;67.31;99794.47;5039504;28;20049;-75
2024/01/21 03:27:04;;;;;;;27.73;15.38;;;;;;;-2.46;68.79;99800.72;5069470;28;20032;-75
2024/01/21 03:29:29;;;;;;;25.63;13.75;;;;;;;-2.47;68.23;99802.50;5069138;28;20025;-74
2024/01/21 03:31:54;;;;;;;27.33;14.57;;;;;;;-2.53;67.82;99791.78;5054498;28;20047;-74
2024/01/21 03:34:20;;;;;;;26.45;13.52;;;;;;;-2.47;67.87;99784.19;5057099;28;20039;-74
2024/01/21 03:36:45;;;;;;;28.35;14.88;;;;;;;-2.32;67.27;99779.34;5067101;28;20017;-74
2024/01/21 03:39:11;;;;;;;28.10;15.32;;;;;;;-2.41;68.73;99761.91;5061733;28;20040;-74
2024/01/21 03:41:36;;;;;;;25.83;14.13;;;;;;;-2.42;67.90;99768.09;5041717;28;20536;-74
2024/01/21 03:44:01;;;;;;;27.05;14.93;;;;;;;-2.44;68.32;99764.81;5052797;28;20401;-74
2024/01/21 03:46:26;;;;;;;28.10;15.27;;;;;;;-2.46;69.01;99754.50;5064880;28;20397;-74
2024/01/21 03:48:52;;;;;;;27.05;14.70;;;;;;;-2.59;68.86;99743.53;5061257;28;20060;-74
2024/01/21 03:51:17;;;;;;;28.38;14.40;;;;;;;-2.51;68.59;99754.09;5065461;28;20071;-74
2024/01/21 03:53:42;;;;;;;26.35;14.38;;;;;;;-2.46;68.94;99740.59;5056884;28;20040;-74
2024/01/21 03:56:08;;;;;;;24.02;14.48;;;;;;;-2.41;68.05;99743.63;5057704;28;20033;-74
2024/01/21 03:58:34;;;;;;;29.73;15.82;;;;;;;-2.33;68.46;99743.72;5065590;28;20434;-74
2024/01/21 04:01:02;;;;;;;32.38;15.60;;;;;;;-2.31;68.29;99744.38;5060046;28;20020;-74
2024/01/21 04:03:27;;;;;;;28.17;14.90;;;;;;;-2.33;68.47;99747.16;5059548;28;20031;-74
2024/01/21 04:05:52;;;;;;;27.55;15.25;;;;;;;-2.24;68.58;99740.22;5063431;28;20392;-75
2024/01/21 04:08:18;;;;;;;31.20;15.65;;;;;;;-2.28;68.44;99739.72;5046633;28;20098;-74
2024/01/21 04:10:43;;;;;;;30.83;15.18;;;;;;;-2.29;68.26;99732.81;5060610;28;20028;-75
2024/01/21 04:13:09;;;;;;;25.08;15.13;;;;;;;-2.27;68.66;99717.81;5059364;28;20446;-74
2024/01/21 04:15:34;;;;;;;28.92;16.58;;;;;;;-2.35;67.87;99707.28;5062192;28;20048;-74
2024/01/21 04:18:00;;;;;;;27.30;14.65;;;;;;;-2.34;67.89;99719.34;5055357;28;20059;-74
2024/01/21 04:20:25;;;;;;;34.85;15.38;;;;;;;-2.44;69.01;99715.97;5061149;28;20043;-75
2024/01/21 04:22:50;;;;;;;28.23;14.75;;;;;;;-2.45;69.07;99716.13;5057194;28;20040;-74
2024/01/21 04:25:16;;;;;;;24.83;13.85;;;;;;;-2.51;69.27;99706.25;5054072;28;20040;-73
2024/01/21 04:27:41;;;;;;;28.10;14.80;;;;;;;-2.49;68.91;99701.72;5062966;28;20033;-74
2024/01/21 04:30:07;;;;;;;25.05;14.02;;;;;;;-2.48;68.66;99705.94;5060415;28;20021;-73
2024/01/21 04:32:32;;;;;;;29.95;16.73;;;;;;;-2.46;68.07;99706.63;5062453;28;20401;-73
2024/01/21 04:34:57;;;;;;;31.45;15.50;;;;;;;-2.41;68.37;99696.56;5069662;28;20025;-73
2024/01/21 04:37:23;;;;;;;32.33;15.82;;;;;;;-2.40;67.87;99695.59;5072637;28;20016;-75
2024/01/21 04:39:48;;;;;;;25.10;13.93;;;;;;;-2.34;68.06;99701.06;5068231;28;20387;-74
2024/01/21 04:42:14;;;;;;;29.35;14.77;;;;;;;-2.42;68.07;99703.59;5054569;28;20033;-75
2024/01/21 04:44:39;;;;;;;27.10;14.20;;;;;;;-2.46;67.98;99711.84;5062357;28;20117;-75
2024/01/21 04:47:04;;;;;;;30.20;15.90;;;;;;;-2.46;68.28;99701.41;5063260;28;20035;-74
2024/01/21 04:49:30;;;;;;;26.23;14.45;;;;;;;-2.54;68.43;99693.47;5061076;28;20063;-74
2024/01/21 04:51:55;;;;;;;27.13;14.57;;;;;;;-2.51;68.03;99696.59;5052468;28;20367;-74
2024/01/21 04:54:20;;;;;;;28.60;14.85;;;;;;;-2.52;67.95;99694.16;5057659;28;20619;-74
2024/01/21 04:56:46;;;;;;;23.58;13.30;;;;;;;-2.55;67.83;99691.81;5064086;28;20028;-75
2024/01/21 04:59:11;;;;;;;26.45;14.07;;;;;;;-2.48;67.77;99696.34;5065420;28;20373;-74
2024/01/21 05:01:38;;;;;;;29.85;15.43;;;;;;;-2.51;67.72;99696.59;5062705;28;20529;-74
2024/01/21 05:04:04;;;;;;;26.98;14.63;;;;;;;-2.48;67.35;99698.13;5058823;28;20037;-75
2024/01/21 05:06:29;;;;;;;27.08;15.30;;;;;;;-2.57;67.44;99691.13;5061940;28;20039;-75
2024/01/21 05:08:54;;;;;;;28.08;12.88;;;;;;;-2.53;68.24;99693.31;5063240;28;20169;-74
2024/01/21 05:11:20;;;;;;;26.63;14.32;;;;;;;-2.53;67.56;99697.72;5061317;28;20037;-74
2024/01/21 05:13:45;;;;;;;23.40;12.88;;;;;;;-2.58;67.62;99692.94;5059058;28;20020;-74
2024/01/21 05:16:10;;;;;;;26.48;13.80;;;;;;;-2.68;68.36;99691.31;5061580;28;20036;-74
2024/01/21 05:18:39;;;;;;;24.85;13.25;;;;;;;-2.60;67.87;99694.06;5071039;28;20055;-75
2024/01/21 05:21:04;;;;;;;29.73;13.57;;;;;;;-2.65;67.49;99691.03;5062085;28;20492;-75
2024/01/21 05:23:30;;;;;;;29.33;14.32;;;;;;;-2.67;68.14;99682.53;5062670;28;20032;-74
2024/01/21 05:25:55;;;;;;;29.63;14.27;;;;;;;-2.65;68.22;99680.59;5068225;28;20028;-74
2024/01/21 05:28:20;;;;;;;23.80;12.45;;;;;;;-2.77;67.89;99682.56;5079757;28;20035;-74
2024/01/21 05:30:46;;;;;;;25.38;12.65;;;;;;;-2.87;68.40;99683.56;5056117;28;20033;-74
2024/01/21 05:33:11;;;;;;;26.23;13.35;;;;;;;-2.91;68.13;99682.22;5062068;28;20036;-74
2024/01/21 05:35:37;;;;;;;21.00;11.63;;;;;;;-2.90;68.07;99684.66;5059988;28;20040;-74
2024/01/21 05:38:02;;;;;;;23.77;13.00;;;;;;;-2.81;68.37;99693.44;5066139;28;20073;-73
2024/01/21 05:40:27;;;;;;;23.15;13.48;;;;;;;-2.71;67.47;99691.63;5055285;28;20059;-74
2024/01/21 05:42:53;;;;;;;24.60;12.70;;;;;;;-2.94;67.85;99672.03;5050726;28;20033;-73
2024/01/21 05:45:19;;;;;;;24.77;12.80;;;;;;;-2.94;67.75;99679.88;5057953;28;20090;-74
2024/01/21 05:47:44;;;;;;;21.75;12.00;;;;;;;-2.93;68.67;99679.75;5064400;28;20435;-74
2024/01/21 05:50:10;;;;;;;26.10;11.88;;;;;;;-2.93;68.42;99676.31;5059209;28;20029;-74
2024/01/21 05:52:36;;;;;;;25.65;12.30;;;;;;;-2.88;68.21;99666.25;5061320;28;20362;-74
2024/01/21 05:55:03;;;;;;;28.50;14.80;;;;;;;-2.84;68.05;99668.41;5067350;28;20036;-74
2024/01/21 05:57:28;;;;;;;26.63;14.27;;;;;;;-2.90;68.40;99662.94;5071447;28;20029;-73
2024/01/21 05:59:54;;;;;;;25.60;14.75;;;;;;;-2.81;68.15;99657.69;5065258;28;20055;-74
2024/01/21 06:02:19;;;;;;;27.13;15.25;;;;;;;-2.76;68.81;99652.03;5067802;28;20036;-74
2024/01/21 06:04:45;;;;;;;21.27;13.02;;;;;;;-2.66;68.08;99650.19;5071768;28;20128;-74
2024/01/21 06:07:10;;;;;;;27.35;13.20;;;;;;;-2.65;67.43;99651.84;5062714;28;20412;-74
2024/01/21 06:09:35;;;;;;;23.52;11.55;;;;;;;-2.84;68.31;99652.75;5059402;28;20032;-73
2024/01/21 06:12:01;;;;;;;29.65;12.45;;;;;;;-2.74;67.80;99657.94;5067651;28;20032;-74
2024/01/21 06:14:26;;;;;;;22.90;12.85;;;;;;;-2.86;67.41;99653.88;5064741;28;20040;-75
2024/01/21 06:16:52;;;;;;;25.83;13.10;;;;;;;-2.81;68.00;99652.47;5062098;28;20124;-75
2024/01/21 06:19:17;;;;;;;25.02;13.57;;;;;;;-2.72;67.65;99637.72;5060144;28;20370;-74
2024/01/21 06:21:43;;;;;;;28.98;13.45;;;;;;;-2.61;67.80;99633.13;5057463;28;20040;-74
2024/01/21 06:24:10;;;;;;;24.58;13.95;;;;;;;-2.63;66.73;99629.84;5043572;28;20032;-73
2024/01/21 06:26:37;;;;;;;27.58;13.45;;;;;;;-2.70;67.12;99628.78;5061572;28;20048;-74
2024/01/21 06:29:03;;;;;;;25.23;13.73;;;;;;;-2.75;68.01;99620.53;5067532;28;20044;-73
2024/01/21 06:31:29;;;;;;;31.08;15.23;;;;;;;-2.58;67.38;99614.56;5066863;28;20036;-73
2024/01/21 06:33:54;;;;;;;27.50;14.80;;;;;;;-2.56;67.54;99614.41;5062471;28;20032;-73
2024/01/21 06:36:22;;;;;;;28.77;15.20;;;;;;;-2.66;67.59;99608.41;5067333;28;20040;-74
2024/01/21 06:38:48;;;;;;;27.50;13.57;;;;;;;-2.66;67.97;99611.00;5056911;28;20032;-73
2024/01/21 06:41:13;;;;;;;24.83;13.35;;;;;;;-2.82;67.77;99601.22;5055082;28;20120;-73
2024/01/21 06:43:39;;;;;;;27.35;15.95;;;;;;;-2.81;67.40;99595.00;5063829;28;20028;-73
2024/01/21 06:46:04;;;;;;;24.05;14.27;;;;;;;-3.06;68.23;99596.50;5072350;28;20059;-74
2024/01/21 06:48:29;;;;;;;22.80;14.10;;;;;;;-2.79;68.34;99579.19;5062434;28;20115;-73
2024/01/21 06:50:55;;;;;;;33.95;16.17;;;;;;;-2.81;69.01;99574.13;5074201;28;20035;-74
2024/01/21 06:53:20;;;;;;;22.38;11.68;;;;;;;-3.15;67.83;99568.66;5066599;28;20127;-73
2024/01/21 06:55:46;;;;;;;24.83;13.38;;;;;;;-3.30;68.92;99566.66;5068156;28;20468;-74
2024/01/21 06:58:12;;;;;;;20.90;12.27;;;;;;;-3.05;68.92;99560.78;5065323;28;20033;-73
2024/01/21 07:00:37;;;;;;;22.80;11.85;;;;;;;-3.12;69.15;99570.13;5060390;28;20486;-73
2024/01/21 07:03:03;;;;;;;24.73;13.00;;;;;;;-2.85;67.92;99561.50;5067238;28;20075;-73
2024/01/21 07:05:28;;;;;;;22.45;12.50;;;;;;;-2.95;67.92;99560.75;5076393;28;20037;-74
2024/01/21 07:07:54;;;;;;;23.58;12.32;;;;;;;-3.18;69.04;99561.13;5066735;28;20060;-73
2024/01/21 07:10:19;;;;;;;20.23;12.02;;;;;;;-2.96;68.36;99553.84;5068498;28;20389;-74
2024/01/21 07:12:44;;;;;;;21.85;12.20;;;;;;;-3.15;68.49;99553.00;5061201;28;20151;-73
2024/01/21 07:15:10;;;;;;;22.83;11.80;;;;;;;-3.10;68.63;99550.75;5055769;28;20021;-73
2024/01/21 07:17:35;;;;;;;22.13;11.57;;;;;;;-3.06;68.15;99552.09;5066232;28;20488;-73
2024/01/21 07:20:01;;;;;;;16.42;10.73;;;;;;;-2.95;68.80;99543.28;5073454;28;20070;-73
2024/01/21 07:22:26;;;;;;;16.52;11.05;;;;;;;-3.03;67.40;99549.22;5063541;28;20028;-73
2024/01/21 07:24:53;;;;;;;22.63;9.95;;;;;;;-2.75;68.24;99544.00;5076561;28;20043;-73
2024/01/21 07:27:18;;;;;;;19.48;10.30;;;;;;;-2.67;68.71;99537.06;5064770;28;20046;-73
2024/01/21 07:29:44;;;;;;;16.20;10.02;;;;;;;-2.68;68.69;99534.56;5064128;28;20384;-73
2024/01/21 07:32:09;;;;;;;20.20;10.55;;;;;;;-2.67;68.18;99538.84;5062472;28;20045;-73
2024/01/21 07:34:35;;;;;;;20.67;11.05;;;;;;;-2.86;67.42;99529.31;5056641;28;20104;-74
2024/01/21 07:37:00;;;;;;;15.73;9.80;;;;;;;-2.87;68.37;99532.09;5062531;28;20642;-74
2024/01/21 07:39:25;;;;;;;17.98;9.90;;;;;;;-2.94;68.14;99544.09;5064199;28;20412;-73
2024/01/21 07:41:51;;;;;;;20.77;10.52;;;;;;;-2.91;68.26;99533.38;5060353;28;20090;-73
2024/01/21 07:44:16;;;;;;;21.95;10.13;;;;;;;-2.74;68.64;99543.00;5043865;28;20405;-72
2024/01/21 07:46:41;;;;;;;18.75;9.35;;;;;;;-2.66;68.60;99533.47;5074106;28;20032;-73
2024/01/21 07:49:07;;;;;;;20.58;10.57;;;;;;;-2.57;68.74;99524.75;5060904;28;20036;-73
2024/01/21 07:51:33;;;;;;;16.40;9.85;;;;;;;-2.69;68.27;99527.72;5053332;28;20029;-72
2024/01/21 07:53:58;;;;;;;18.20;10.10;;;;;;;-2.47;67.73;99529.91;5059648;28;20489;-73
2024/01/21 07:56:23;;;;;;;16.90;10.05;;;;;;;-2.61;67.82;99533.03;5061676;28;20024;-72
2024/01/21 07:58:49;;;;;;;18.00;10.15;;;;;;;-2.90;66.64;99532.38;5060104;28;20070;-72
2024/01/21 08:01:17;;;;;;;17.67;9.70;;;;;;;-2.62;67.52;99544.47;5054339;28;20036;-72
2024/01/21 08:03:42;;;;;;;20.40;11.00;;;;;;;-2.49;68.11;99550.94;5062890;28;20428;-72
2024/01/21 08:06:07;;;;;;;17.70;9.35;;;;;;;-2.66;66.89;99545.69;5059708;28;20059;-73
2024/01/21 08:08:33;;;;;;;21.00;10.82;;;;;;;-2.51;68.50;99542.44;5061342;28;20041;-72
2024/01/21 08:10:59;;;;;;;15.45;10.13;;;;;;;-2.58;67.11;99532.75;5062038;28;20047;-72
2024/01/21 08:13:24;;;;;;;17.73;8.98;;;;;;;-2.83;67.27;99528.22;5064325;28;20044;-72
2024/01/21 08:15:49;;;;;;;17.05;8.73;;;;;;;-2.70;67.96;99536.53;5074820;28;20068;-72
2024/01/21 08:18:18;;;;;;;21.40;9.98;;;;;;;-2.82;67.94;99543.75;5073047;28;20025;-72
2024/01/21 08:20:43;;;;;;;13.95;9.90;;;;;;;-2.49;68.30;99540.50;5038483;28;20029;-72
2024/01/21 08:23:09;;;;;;;18.10;8.73;;;;;;;-2.34;67.45;99546.03;5064840;28;20090;-72
2024/01/21 08:25:34;;;;;;;19.10;10.40;;;;;;;-2.68;67.26;99538.03;5063669;28;20040;-72
2024/01/21 08:28:00;;;;;;;16.10;9.35;;;;;;;-2.52;68.56;99537.38;5079307;28;20031;-72
2024/01/21 08:30:26;;;;;;;17.77;9.82;;;;;;;-2.18;68.41;99527.06;5063716;28;20049;-70
2024/01/21 08:32:52;;;;;;;24.45;14.15;;;;;;;-2.86;67.40;99512.88;5076428;28;20395;-71
2024/01/21 08:35:20;;;;;;;18.63;12.05;;;;;;;-2.85;68.28;99499.66;5066748;28;20481;-72
2024/01/21 08:37:45;;;;;;;25.02;11.77;;;;;;;-2.87;69.15;99514.66;5061619;28;20028;-71
2024/01/21 08:40:11;;;;;;;19.60;10.45;;;;;;;-3.23;68.94;99515.50;5063494;28;20130;-72
2024/01/21 08:42:36;;;;;;;19.52;10.48;;;;;;;-3.20;67.89;99504.78;5062104;28;20025;-72
2024/01/21 08:45:02;;;;;;;23.13;11.90;;;;;;;-2.68;70.39;99517.13;5071753;28;20024;-72
2024/01/21 08:47:27;;;;;;;15.90;9.50;;;;;;;-2.82;67.61;99524.66;5079857;28;20043;-71
2024/01/21 08:49:53;;;;;;;26.30;12.18;;;;;;;-3.10;67.18;99527.25;5063034;28;20373;-72
2024/01/21 08:52:18;;;;;;;20.70;9.57;;;;;;;-2.78;68.46;99520.78;5055780;28;20203;-72
2024/01/21 08:54:43;;;;;;;25.80;10.68;;;;;;;-2.61;69.70;99512.13;5055519;28;20025;-71
2024/01/21 08:57:09;;;;;;;20.45;11.20;;;;;;;-2.60;68.24;99513.78;5064604;28;20144;-71
2024/01/21 08:59:34;;;;;;;18.67;10.98;;;;;;;-2.20;68.77;99521.97;5063237;28;20108;-72
2024/01/21 09:01:59;;;;;;;18.50;9.80;;;;;;;-2.36;68.01;99520.03;5062526;28;20029;-74
2024/01/21 09:04:25;;;;;;;19.45;10.32;;;;;;;-2.10;68.98;99517.50;5064755;28;20036;-73
2024/01/21 09:06:50;;;;;;;17.98;9.68;;;;;;;-2.36;68.46;99508.78;5059938;28;20375;-72
2024/01/21 09:09:16;;;;;;;15.27;9.13;;;;;;;-2.38;67.64;99500.28;5057586;28;20029;-72
2024/01/21 09:11:41;;;;;;;18.02;9.48;;;;;;;-2.11;68.69;99492.31;5059918;28;20025;-71
2024/01/21 09:14:07;;;;;;;21.92;11.95;;;;;;;-2.59;66.62;99490.13;5057666;28;20045;-72
2024/01/21 09:16:33;;;;;;;18.95;9.77;;;;;;;-2.01;68.28;99503.47;5058812;28;20029;-72
2024/01/21 09:18:59;;;;;;;17.58;10.43;;;;;;;-1.92;68.82;99507.00;5057335;28;20033;-72
2024/01/21 09:21:24;;;;;;;22.02;10.23;;;;;;;-2.08;66.90;99497.25;5058367;28;20035;-75
2024/01/21 09:23:50;;;;;;;21.20;10.85;;;;;;;-2.13;65.93;99507.31;5059522;28;20027;-73
2024/01/21 09:26:15;;;;;;;15.50;8.55;;;;;;;-1.86;68.23;99515.06;5059093;28;20409;-73
2024/01/21 09:28:42;;;;;;;18.75;9.60;;;;;;;-1.62;68.34;99515.19;5055763;28;20029;-73
2024/01/21 09:31:09;;;;;;;18.70;10.13;;;;;;;-2.03;68.56;99492.34;5065588;28;20489;-73
2024/01/21 09:33:35;;;;;;;18.00;10.80;;;;;;;-1.77;68.59;99498.41;5062656;28;20032;-73
2024/01/21 09:36:01;;;;;;;18.58;10.05;;;;;;;-1.80;68.32;99503.16;5066275;28;20024;-73
2024/01/21 09:38:26;;;;;;;22.15;13.15;;;;;;;-2.12;67.24;99490.69;5061908;28;20025;-73
2024/01/21 09:41:01;;;;;;;18.08;9.23;;;;;;;-2.13;68.59;99504.72;5063162;28;20128;-73
2024/01/21 09:43:28;;;;;;;19.27;9.73;;;;;;;-2.30;68.05;99513.41;5053453;28;20024;-73
2024/01/21 09:45:55;;;;;;;16.95;8.68;;;;;;;-2.26;67.73;99522.56;5047900;28;20036;-73
2024/01/21 09:48:21;;;;;;;23.15;11.15;;;;;;;-1.71;68.50;99544.09;5057646;28;20094;-73
2024/01/21 09:50:48;;;;;;;25.33;11.15;;;;;;;-1.65;68.93;99578.31;5066914;28;20033;-73
2024/01/21 09:53:13;;;;;;;18.90;10.70;;;;;;;-1.62;68.81;99582.44;5061137;28;20083;-73
2024/01/21 09:55:39;;;;;;;16.27;9.00;;;;;;;-1.49;68.41;99589.88;5061384;28;20723;-72
2024/01/21 09:58:07;;;;;;;20.02;12.32;;;;;;;-2.09;67.62;99560.13;5056349;28;20075;-73
2024/01/21 10:00:34;;;;;;;22.63;11.23;;;;;;;-1.62;68.30;99551.03;5061528;28;20035;-73
2024/01/21 10:02:59;;;;;;;16.02;8.45;;;;;;;-1.64;68.66;99556.38;5060266;28;20078;-73
2024/01/21 10:05:24;;;;;;;20.63;10.80;;;;;;;-1.71;68.21;99570.25;5057730;28;20036;-73
2024/01/21 10:07:51;;;;;;;28.75;11.73;;;;;;;-1.46;68.08;99573.88;5057866;28;20059;-73
2024/01/21 10:10:17;;;;;;;15.93;9.43;;;;;;;-1.85;68.94;99602.19;5062863;28;20032;-73
2024/01/21 10:12:42;;;;;;;19.80;9.77;;;;;;;-1.74;68.79;99584.47;5058369;28;20554;-73
2024/01/21 10:15:12;;;;;;;18.67;10.63;;;;;;;-1.94;68.68;99559.44;5059929;28;20116;-74
2024/01/21 10:17:37;;;;;;;14.77;9.40;;;;;;;-1.85;68.52;99539.41;5064289;28;20036;-73
2024/01/21 10:20:02;;;;;;;16.20;7.75;;;;;;;-1.93;68.50;99515.81;5068478;28;20032;-73
2024/01/21 10:22:28;;;;;;;15.07;8.43;;;;;;;-1.94;68.76;99501.91;5060655;28;20037;-73
2024/01/21 10:24:53;;;;;;;25.55;8.88;;;;;;;-1.80;68.39;99514.44;5062520;28;20869;-73
2024/01/21 10:27:20;;;;;;;14.38;8.23;;;;;;;-1.83;68.34;99535.66;5066426;28;20052;-73
2024/01/21 10:29:46;;;;;;;20.98;9.35;;;;;;;-1.48;68.89;99502.50;5060422;28;20364;-74
2024/01/21 10:32:14;;;;;;;13.70;7.07;;;;;;;-1.64;68.44;99477.88;5061472;28;20508;-74
2024/01/21 10:34:42;;;;;;;15.07;8.85;;;;;;;-1.60;68.91;99471.38;5060964;28;20408;-73
2024/01/21 10:37:08;;;;;;;14.07;7.50;;;;;;;-1.61;68.47;99472.34;5062594;28;20024;-73
2024/01/21 10:39:36;;;;;;;14.85;8.07;;;;;;;-1.52;69.09;99473.22;5059240;28;20044;-73
2024/01/21 10:42:02;;;;;;;11.07;7.28;;;;;;;-1.55;68.75;99476.97;5061014;28;20028;-73
2024/01/21 10:44:28;;;;;;;13.85;6.82;;;;;;;-1.56;68.52;99479.75;5059457;28;20477;-73
2024/01/21 10:46:54;;;;;;;11.25;6.25;;;;;;;-1.58;68.77;99506.06;5060053;28;20027;-75
2024/01/21 10:49:20;;;;;;;10.93;5.63;;;;;;;-1.33;68.14;99508.81;5056591;28;20036;-74
2024/01/21 10:51:46;;;;;;;11.20;6.68;;;;;;;-1.53;68.88;99495.94;5058457;28;20024;-74
2024/01/21 10:54:16;;;;;;;11.65;6.93;;;;;;;-1.51;68.97;99499.22;5072005;28;20035;-73
2024/01/21 10:56:42;;;;;;;8.13;5.72;;;;;;;-1.19;68.68;99550.09;5064806;28;20103;-73
2024/01/21 10:59:09;;;;;;;9.73;6.50;;;;;;;-1.58;68.42;99534.88;5064979;28;20049;-73
2024/01/21 11:01:34;;;;;;;8.88;6.63;;;;;;;-1.41;68.39;99495.66;5067132;28;20047;-74
2024/01/21 11:04:07;;;;;;;8.90;6.32;;;;;;;-1.45;68.55;99508.25;5062677;28;20051;-74
2024/01/21 11:06:33;;;;;;;10.27;7.18;;;;;;;-1.74;67.97;99484.22;5066126;28;20043;-73
2024/01/21 11:09:03;;;;;;;15.93;8.55;;;;;;;-1.64;69.27;99469.25;5058519;28;20501;-73
2024/01/21 11:11:28;;;;;;;17.55;8.00;;;;;;;-1.88;68.39;99464.66;5060949;28;20036;-74